Time;durP1;ratioP1;P1;durP2;ratioP2;P2;SDS_P1;SDS_P2;PMS_P1;PMS_P2;Temp;Humidity;BMP_temperature;BMP_pressure;BME280_temperature;BME280_humidity;BME280_pressure;Samples;Min_cycle;Max_cycle;Signal;HPM_P1;HPM_P2
2022/02/09 08:41:39;;;;;;;11.90;6.53;;;231.30;2252.80;;;;;;4954579;23;20154;-91
2022/02/09 08:44:06;;;;;;;12.50;7.85;;;256.10;2252.80;;;;;;4901043;29;20040;-92
2022/02/09 08:46:33;;;;;;;10.02;5.85;;;256.70;2252.80;;;;;;4901006;29;20046;-93
2022/02/09 08:48:59;;;;;;;8.30;5.50;;;281.80;2278.40;;;;;;4901355;29;20028;-91
2022/02/09 08:51:27;;;;;;;14.50;6.35;;;281.90;2278.40;;;;;;4899127;29;20040;-92
2022/02/09 08:53:54;;;;;;;10.57;5.10;;;282.30;2227.20;;;;;;4882624;29;20119;-93
2022/02/09 08:56:20;;;;;;;16.00;5.80;;;282.50;2227.20;;;;;;4886070;29;20111;-92
2022/02/09 08:58:46;;;;;;;9.18;5.03;;;307.40;2304.00;;;;;;4886123;29;20468;-92
2022/02/09 09:01:23;;;;;;;15.63;7.80;;;307.90;2176.00;;;;;;4886290;29;20029;-91
2022/02/09 09:03:53;;;;;;;16.52;9.60;;;332.80;2150.40;;;;;;4888628;29;20047;-91
2022/02/09 09:06:23;;;;;;;7.32;4.82;;;332.90;2176.00;;;;;;4894946;29;20028;-90
2022/02/09 10:32:53;;;;;;;6.32;4.60;;;870.80;665.60;;;;;;4825899;29;20102;-88
2022/02/09 10:35:14;;;;;;;8.73;3.80;;;845.60;716.80;;;;;;4819094;29;20039;-88
2022/02/09 10:37:40;;;;;;;6.97;3.80;;;870.80;665.60;;;;;;4810567;29;20069;-87
2022/02/09 10:40:12;;;;;;;11.18;4.85;;;819.70;716.80;;;;;;4809819;29;20085;-88
2022/02/09 10:42:55;;;;;;;5.82;4.10;;;717.30;819.20;;;;;;4846544;29;20056;-88
2022/02/09 10:45:31;;;;;;;8.45;5.28;;;666.30;921.60;;;;;;4846799;29;20074;-90
2022/02/09 10:47:58;;;;;;;13.68;8.57;;;615.30;972.80;;;;;;4825337;29;20130;-90
2022/02/09 10:52:52;;;;;;;7.53;5.22;;;614.70;1024.00;;;;;;4900785;29;20028;-89
2022/02/09 10:55:31;;;;;;;16.77;8.35;;;564.00;1075.20;;;;;;4884238;29;20501;-87
2022/02/09 10:57:58;;;;;;;7.80;4.95;;;538.20;1126.40;;;;;;4883926;29;20033;-88
2022/02/09 11:00:25;;;;;;;8.57;4.60;;;537.60;1203.20;;;;;;4883846;29;20033;-87
2022/02/09 11:02:52;;;;;;;6.68;4.30;;;512.40;1228.80;;;;;;4883846;29;20192;-88
2022/02/09 11:05:20;;;;;;;10.95;5.28;;;487.00;1305.60;;;;;;4883944;29;20032;-91
2022/02/09 11:07:54;;;;;;;8.77;5.18;;;512.00;1280.00;;;;;;4900624;29;20031;-90
2022/02/09 11:10:25;;;;;;;5.15;3.88;;;538.40;1177.60;;;;;;4884036;29;20103;-90
2022/02/09 11:12:53;;;;;;;4.57;2.58;;;614.90;998.40;;;;;;4900779;29;20029;-88
2022/02/09 11:15:20;;;;;;;5.20;3.00;;;;;;;;;;4883747;29;20051;-90
2022/02/09 11:17:48;;;;;;;4.72;2.65;;;640.50;947.20;;;;;;4889681;29;20024;-90
2022/02/09 11:20:21;;;;;;;3.65;2.33;;;665.70;947.20;;;;;;4892671;29;20035;-89
2022/02/09 11:22:48;;;;;;;4.75;2.95;;;640.80;896.00;;;;;;4888422;29;20075;-89
2022/02/09 11:25:26;;;;;;;8.48;4.80;;;614.70;1024.00;;;;;;4893937;29;20390;-89
2022/02/09 11:28:12;;;;;;;7.10;4.07;;;;;;;;;;4891110;29;20114;-88
2022/02/09 11:30:45;;;;;;;5.10;4.60;;;589.10;1075.20;;;;;;4899255;29;20116;-89
2022/02/09 11:36:28;;;;;;;4.53;3.67;;;589.60;1024.00;;;;;;4899950;29;20123;-88
2022/02/09 11:39:02;;;;;;;7.13;2.60;;;589.20;1075.20;;;;;;4893714;29;20056;-88
2022/02/09 11:41:36;;;;;;;4.03;2.60;;;563.90;1100.80;;;;;;4901926;29;20087;-89
2022/02/09 11:44:12;;;;;;;5.30;2.90;;;563.50;1177.60;;;;;;4900669;29;20029;-89
2022/02/09 12:09:23;;;;;;;6.93;5.13;;;461.40;1382.40;;;;;;4918433;29;20039;-85
2022/02/09 12:11:50;;;;;;;7.20;3.13;;;461.30;1382.40;;;;;;4898258;29;20036;-86
2022/02/09 12:15:00;;;;;;;9.40;2.67;;;460.90;1408.00;;;;;;4887423;29;20469;-87
2022/02/09 12:23:09;;;;;;;4.93;3.38;;;436.10;1408.00;;;;;;4902614;29;20071;-87
2022/02/09 12:25:46;;;;;;;10.43;5.03;;;435.80;1433.60;;;;;;4911008;29;20074;-88
2022/02/09 12:28:16;;;;;;;11.27;5.78;;;435.60;1459.20;;;;;;4896970;29;20035;-86
2022/02/09 12:30:43;;;;;;;8.88;4.13;;;435.60;1459.20;;;;;;4882502;29;20029;-86
2022/02/09 12:33:26;;;;;;;10.25;6.50;;;435.70;1459.20;;;;;;4882261;29;20025;-86
2022/02/09 12:35:52;;;;;;;9.97;5.57;;;435.70;1459.20;;;;;;4898454;29;20401;-90
2022/02/09 12:38:31;;;;;;;4.28;2.90;;;435.60;1459.20;;;;;;4901099;29;20819;-86
2022/02/09 12:41:18;;;;;;;8.40;6.40;;;435.30;1484.80;;;;;;4890976;29;20499;-85
2022/02/09 12:43:49;;;;;;;10.27;5.00;;;410.40;1510.40;;;;;;4893249;29;20052;-85
2022/02/09 12:46:17;;;;;;;8.70;5.65;;;410.10;1536.00;;;;;;4900439;29;20028;-85
2022/02/09 12:48:42;;;;;;;11.75;7.35;;;410.00;1561.60;;;;;;4900996;29;20503;-87
2022/02/09 12:51:08;;;;;;;14.95;6.53;;;410.00;1561.60;;;;;;4900933;29;20107;-93
2022/02/09 12:53:36;;;;;;;12.65;4.75;;;410.10;1561.60;;;;;;4900935;29;20032;-90
2022/02/09 12:56:16;;;;;;;13.63;6.80;;;410.10;1536.00;;;;;;4900878;29;20481;-86
2022/02/09 12:58:42;;;;;;;19.23;13.07;;;410.40;1536.00;;;;;;4900074;29;20091;-86
2022/02/09 13:01:08;;;;;;;16.42;8.75;;;435.50;1510.40;;;;;;4900691;29;20484;-86
2022/02/09 13:03:34;;;;;;;11.57;4.68;;;461.10;1433.60;;;;;;4900588;29;20044;-86
2022/02/09 13:06:00;;;;;;;6.85;4.45;;;;;;;;;;4900574;29;20036;-84
2022/02/09 13:08:29;;;;;;;8.57;4.88;;;563.40;1228.80;;;;;;4896742;29;20655;-85
2022/02/09 13:11:19;;;;;;;11.57;5.40;;;563.80;1305.60;;;;;;4900353;29;20115;-85
2022/02/09 13:13:58;;;;;;;11.93;6.05;;;512.50;1228.80;;;;;;4881796;29;20036;-85
2022/02/09 13:19:38;;;;;;;5.53;3.03;;;486.40;1356.80;;;;;;4903545;29;20060;-85
2022/02/09 13:25:47;;;;;;;15.25;7.35;;;460.90;1433.60;;;;;;4871378;29;20064;-86
2022/02/09 14:02:42;;;;;;;12.32;7.47;;;665.80;947.20;;;;;;4879862;29;20047;-85
2022/02/09 14:06:34;;;;;;;7.13;4.97;;;640.00;998.40;;;;;;4832431;29;20481;-85
2022/02/09 14:13:58;;;;;;;10.82;5.82;;;589.20;1075.20;;;;;;4900809;29;20071;-85
2022/02/09 14:33:27;;;;;;;99.90;42.40;;;460.80;1433.60;;;;;;4930657;29;20031;-88
2022/02/09 14:35:41;;;;;;;75.10;28.00;;;460.90;1433.60;;;;;;4900752;29;20518;-87
2022/02/09 14:55:17;;;;;;;50.97;21.90;;;435.90;1459.20;;;;;;4843433;29;20044;-93
2022/02/09 14:57:52;;;;;;;57.00;21.35;;;435.80;1459.20;;;;;;4854446;29;20077;-90
2022/02/09 15:00:22;;;;;;;30.55;11.20;;;435.60;1484.80;;;;;;4855262;29;20049;-89
2022/02/09 15:03:03;;;;;;;58.85;22.50;;;435.40;1484.80;;;;;;4842997;29;20526;-85
2022/02/09 15:08:23;;;;;;;34.65;14.48;;;410.50;1536.00;;;;;;4846519;29;20077;-84
2022/02/09 15:11:05;;;;;;;47.85;17.13;;;410.50;1536.00;;;;;;4871199;29;20037;-92
2022/02/09 15:16:17;;;;;;;37.40;16.48;;;410.20;1587.20;;;;;;4858077;29;20089;-85
2022/02/09 15:24:13;;;;;;;44.13;17.42;;;384.90;1587.20;;;;;;4842241;29;20112;-92
2022/02/09 15:26:41;;;;;;;53.28;23.35;;;384.80;1612.80;;;;;;4863788;29;20264;-86
2022/02/09 15:29:06;;;;;;;41.45;17.95;;;384.60;1664.00;;;;;;4854234;29;20090;-81
2022/02/09 15:32:20;;;;;;;35.22;14.15;;;384.60;1638.40;;;;;;4894881;29;20032;-92
2022/02/09 15:37:00;;;;;;;66.15;38.40;;;384.50;1664.00;;;;;;4937817;29;20504;-91
2022/02/09 15:39:28;;;;;;;43.58;26.98;;;384.40;1664.00;;;;;;4896020;29;20039;-93
2022/02/09 15:42:04;;;;;;;25.33;14.73;;;384.00;1715.20;;;;;;4881979;29;20044;-86
2022/02/09 16:11:35;;;;;;;76.63;45.35;;;333.30;1945.60;;;;;;4899669;29;20051;-86
2022/02/09 16:17:11;;;;;;;266.70;139.02;;;333.20;1971.20;;;;;;4899756;29;20080;-87
2022/02/09 16:22:34;;;;;;;60.80;32.47;;;333.10;1996.80;;;;;;4899391;29;20031;-88
2022/02/09 16:33:14;;;;;;;69.45;38.83;;;332.80;2304.00;;;;;;4899794;29;20534;-86
2022/02/09 16:46:40;;;;;;;204.05;130.07;;;307.60;2150.40;;;;;;4899610;29;20087;-87
2022/02/09 16:49:13;;;;;;;160.63;103.93;;;307.50;2150.40;;;;;;4882338;29;20127;-87
2022/02/09 16:51:54;;;;;;;151.55;92.30;;;307.50;2176.00;;;;;;4882209;29;20032;-88
2022/02/09 17:19:02;;;;;;;89.78;45.45;;;282.30;2278.40;;;;;;4737936;30;20080;-93
2022/02/09 17:21:30;;;;;;;120.78;66.03;;;282.20;2278.40;;;;;;4737491;30;20044;-94
2022/02/09 17:24:01;;;;;;;100.22;48.38;;;282.20;2278.40;;;;;;4737656;30;20094;-94
2022/02/09 17:26:27;;;;;;;81.72;42.90;;;282.20;2278.40;;;;;;4736939;30;20075;-91
2022/02/09 17:28:59;;;;;;;87.18;44.20;;;282.10;2278.40;;;;;;4737380;30;20040;-93
2022/02/09 17:34:14;;;;;;;96.78;51.08;;;282.00;2278.40;;;;;;4803322;29;20047;-93
2022/02/09 17:37:01;;;;;;;74.88;44.65;;;281.90;2278.40;;;;;;4838422;29;20174;-93
2022/02/09 17:53:26;;;;;;;140.32;80.00;;;281.70;2278.40;;;;;;4903518;29;20676;-94
2022/02/09 17:58:34;;;;;;;129.35;73.70;;;281.60;2278.40;;;;;;4902443;29;20466;-93
2022/02/09 18:01:01;;;;;;;93.28;51.13;;;256.90;2252.80;;;;;;4885678;29;20033;-93
2022/02/09 18:03:28;;;;;;;94.53;51.60;;;256.80;2252.80;;;;;;4885199;29;20037;-92
2022/02/09 18:05:57;;;;;;;101.78;59.20;;;281.60;2278.40;;;;;;4886538;29;20102;-95
2022/02/09 18:37:45;;;;;;;179.05;98.43;;;231.20;2252.80;;;;;;4929227;23;20060;-88
2022/02/09 18:38:06;;;;;;;270.17;152.20;;;231.10;2252.80;;;;;;4910558;29;20104;-92
